Latest Coastal Weather Observations for Kingscote

IDS60701

Issued at 12:45 pm CST Thursday 24 April 2014 (issued every 10 minutes, with the page automatically refreshed every 10 minutes)

About coastal observations | Map of coastal stations | Coastal observations for SA | Marine services | Other Formats
Station Details ID: 022841 Name: KINGSCOTE AERO Lat: -35.71 Lon: 137.52 Height: 6.23 m
Data from the previous 72 hours. | See also: Recent months at Kingscote
Date/Time
CST
Temp

°C
Wind Pressure Rain
since 9am
mm
Weather Cloud Vis
km
Sea
Height
m
Swell
Dir
 
Speed
knots
Gust
knots
hPa Trend Height
m
Period
s
Dir
24/12:30pm 17.6 SSE 10 16 1019.2 - 0.2 - Partly cloudy 10 - - - -
24/12:00pm 17.5 SSE 10 15 1019.5 - 0.0 - Partly cloudy 10 - - - -
24/11:30am 17.4 SE 11 16 1019.5 - 0.0 - Partly cloudy 10 - - - -
24/11:00am 17.0 SSE 12 17 1019.6 - 0.0 - Partly cloudy 10 - - - -
24/10:30am 17.0 S 11 15 1019.6 - 0.0 - - 10 - - - -
24/10:00am 16.9 S 13 19 1019.4 - 0.0 - - 10 - - - -
24/09:30am 16.5 SSE 14 17 1019.4 - 0.0 - - 10 - - - -
24/09:00am 15.8 S 11 15 1019.1 - 1.8 - - 10 - - - -
24/08:30am 15.3 S 9 11 1018.8 - 1.8 - - 10 - - - -
24/08:00am 14.4 S 7 8 1018.3 - 1.8 - Partly cloudy 10 - - - -
24/07:30am 13.5 S 7 8 1017.7 - 1.8 - Partly cloudy 10 - - - -
24/07:00am 13.7 SSW 5 8 1017.4 - 1.8 - Partly cloudy 10 - - - -
24/06:30am 14.0 SSW 7 9 1017.0 - 1.8 - Partly cloudy 10 - - - -
24/06:00am 13.5 SW 6 8 1016.5 - 1.8 - Cloudy 10 - - - -
24/05:30am 12.7 SW 4 6 1016.0 - 1.8 - Partly cloudy 8 - - - -
24/05:24am 12.4 SW 4 5 1015.9 - 1.6 - Partly cloudy 7 - - - -
24/05:12am 12.0 SW 4 5 1015.8 - 1.6 - Partly cloudy 10 - - - -
24/05:00am 12.2 WSW 5 5 1015.7 - 1.6 - Partly cloudy 10 - - - -
24/04:30am 11.6 WNW 4 4 1015.2 - 1.6 - Partly cloudy 10 - - - -
24/04:00am 10.6 S 4 5 1014.9 - 1.6 - Partly cloudy 10 - - - -
24/03:50am 10.2 S 4 5 1014.8 - 1.6 - Partly cloudy 10 - - - -
24/03:30am 10.9 WSW 3 4 1014.6 - 1.6 - Partly cloudy 2 - - - -
24/03:00am 10.8 WSW 5 5 1014.4 - 1.6 - Mostly clear 5 - - - -
24/02:30am 12.0 WSW 5 6 1014.5 - 1.6 - Partly cloudy 10 - - - -
24/02:00am 13.1 W 6 8 1014.5 - 1.6 - - 10 - - - -
24/01:30am 12.9 W 6 7 1014.6 - 1.6 - - 10 - - - -
24/01:00am 13.0 W 6 6 1014.5 - 1.6 - Partly cloudy 10 - - - -
24/12:30am 13.8 W 7 9 1014.5 - 1.6 - Partly cloudy 10 - - - -
24/12:00am 13.4 W 6 10 1014.4 - 1.6 - - 10 - - - -
 
Date/Time
CST
Temp

°C
Wind Pressure Rain
since 9am
mm
Weather Cloud Vis
km
Sea
Height
m
Swell
Dir
 
Speed
knots
Gust
knots
hPa Trend Height
m
Period
s
Dir
23/11:30pm 13.2 WNW 6 7 1014.6 - 1.6 - Partly cloudy 10 - - - -
23/11:00pm 14.2 NW 6 8 1014.9 - 1.6 - Partly cloudy 10 - - - -
23/10:30pm 14.1 NW 6 8 1015.0 - 1.6 - Partly cloudy 10 - - - -
23/10:00pm 14.5 NNW 6 7 1015.0 - 1.6 - Partly cloudy 10 - - - -
23/09:30pm 14.7 N 5 8 1015.0 - 1.6 - Partly cloudy 10 - - - -
23/09:25pm 14.7 N 5 7 1014.9 - 1.6 - Partly cloudy 10 - - - -
23/09:07pm 14.6 NW 8 11 1015.1 - 1.6 - Partly cloudy 5 - - - -
23/09:04pm 14.6 NW 8 9 1015.2 - 1.4 - Partly cloudy 9 - - - -
23/09:01pm 14.7 NW 7 9 1015.1 - 1.4 - Partly cloudy 10 - - - -
23/09:00pm 14.7 NW 7 9 1015.1 - 1.4 - Cloudy 10 - - - -
23/08:49pm 14.6 W 8 11 1014.8 - 1.4 - Partly cloudy 3 - - - -
23/08:30pm 14.8 WNW 6 8 1014.9 - 0.8 - Partly cloudy 4 - - - -
23/08:26pm 14.8 NW 7 9 1014.9 - 0.6 - Partly cloudy 5 - - - -
23/08:15pm 14.8 NW 5 6 1014.8 - 0.4 - Partly cloudy 10 - - - -
23/08:00pm 14.8 WNW 7 10 1014.9 - 0.4 - Partly cloudy 4 - - - -
23/07:50pm 14.9 W 8 11 1015.0 - 0.2 - Partly cloudy 6 - - - -
23/07:34pm 15.2 W 10 14 1014.9 - 0.0 - Partly cloudy 5 - - - -
23/07:30pm 15.4 W 11 14 1014.9 - 0.0 - Partly cloudy 10 - - - -
23/07:00pm 16.6 W 14 19 1014.6 - 0.0 - Partly cloudy 10 - - - -
23/06:30pm 17.2 WNW 8 10 1014.2 - 0.0 - Partly cloudy 10 - - - -
23/06:00pm 17.0 NW 9 11 1013.9 - 0.0 - - 10 - - - -
23/05:30pm 17.7 NW 10 13 1013.7 - 0.0 - - 10 - - - -
23/05:00pm 18.5 NW 13 16 1013.8 - 0.0 - Partly cloudy 10 - - - -
23/04:30pm 19.2 NW 12 17 1013.7 - 0.0 - - 10 - - - -
23/04:00pm 20.0 NW 12 15 1013.9 - 0.0 - - 10 - - - -
23/03:30pm 20.4 NW 14 19 1013.9 - 0.0 - - 10 - - - -
23/03:00pm 19.8 NNW 12 17 1013.7 - 0.0 - - 10 - - - -
23/02:30pm 20.6 NNW 11 17 1013.8 - 0.0 - - 10 - - - -
23/02:00pm 19.9 NW 12 18 1013.9 - 0.0 - - 10 - - - -
23/01:30pm 19.9 NNW 11 15 1014.3 - 0.0 - - 10 - - - -
23/01:00pm 19.4 NNW 12 16 1014.8 - 0.0 - - 10 - - - -
23/12:30pm 19.6 NW 12 16 1015.4 - 0.0 - Partly cloudy 10 - - - -
23/12:00pm 18.8 NW 14 19 1016.3 - 0.0 - Mostly cloudy 10 - - - -
23/11:30am 19.7 NW 12 17 1016.8 - 0.0 - Partly cloudy 10 - - - -
23/11:00am 19.3 NW 12 16 1017.1 - 0.0 - Partly cloudy 10 - - - -
23/10:30am 18.4 NW 12 16 1017.4 - 0.0 - Partly cloudy 10 - - - -
23/10:00am 17.5 NW 5 7 1017.8 - 0.0 - Partly cloudy 10 - - - -
23/09:30am 15.9 SSW 3 5 1018.2 - 0.0 - - 10 - - - -
23/09:00am 11.3 CALM 0 0 1018.3 - 0.0 - Mostly clear 10 - - - -
23/08:30am 8.8 CALM 0 0 1018.1 - 0.0 - - 10 - - - -
23/08:00am 6.4 CALM 0 0 1018.0 - 0.0 - Partly cloudy 10 - - - -
23/07:30am 5.2 CALM 0 0 1017.7 - 0.0 - - 10 - - - -
23/07:00am 4.4 CALM 0 0 1017.3 - 0.0 - - 10 - - - -
23/06:30am 4.3 CALM 0 0 1017.2 - 0.0 - - 10 - - - -
23/06:00am 3.9 CALM 0 0 1017.3 - 0.0 - - 10 - - - -
23/05:51am 3.5 CALM 0 0 1017.4 - 0.0 - - 10 - - - -
23/05:33am 3.2 CALM 0 0 1017.4 - 0.0 - - 5 - - - -
23/05:31am 3.3 CALM 0 0 1017.4 - 0.0 - - 8 - - - -
23/05:30am 3.4 CALM 0 0 1017.4 - 0.0 - - 7 - - - -
23/05:00am 3.6 CALM 0 0 1017.3 - 0.0 - - 0.5 - - - -
23/04:30am 3.9 CALM 0 0 1017.3 - 0.0 - - 0.4 - - - -
23/04:00am 3.8 CALM 0 0 1017.5 - 0.0 - - 0.5 - - - -
23/03:30am 4.7 CALM 0 0 1017.5 - 0.0 - - 1 - - - -
23/03:00am 4.5 CALM 0 0 1017.7 - 0.0 - - 7 - - - -
23/02:42am 5.0 CALM 0 0 1017.9 - 0.0 - - 3 - - - -
23/02:30am 5.1 CALM 0 0 1017.9 - 0.0 - - 10 - - - -
23/02:16am 4.4 CALM 0 0 1018.0 - 0.0 - - 10 - - - -
23/02:00am 3.8 CALM 0 0 1018.2 - 0.0 - - 1 - - - -
23/01:33am 4.4 CALM 0 0 1018.1 - 0.0 - - 4 - - - -
23/01:30am 4.4 CALM 0 0 1018.1 - 0.0 - - 10 - - - -
23/01:00am 5.6 CALM 0 0 1018.3 - 0.0 - - 10 - - - -
23/12:30am 6.2 CALM 0 0 1018.7 - 0.0 - - 10 - - - -
23/12:00am 5.8 CALM 0 0 1018.9 - 0.0 - - 10 - - - -
 
Date/Time
CST
Temp

°C
Wind Pressure Rain
since 9am
mm
Weather Cloud Vis
km
Sea
Height
m
Swell
Dir
 
Speed
knots
Gust
knots
hPa Trend Height
m
Period
s
Dir
22/11:30pm 6.3 CALM 0 0 1019.1 - 0.0 - - 10 - - - -
22/11:00pm 7.1 W 2 3 1019.3 - 0.0 - - 10 - - - -
22/10:30pm 7.3 W 3 4 1019.6 - 0.0 - - 10 - - - -
22/10:00pm 8.4 NW 4 5 1019.6 - 0.0 - - 10 - - - -
22/09:30pm 7.4 SW 2 6 1019.4 - 0.0 - - 10 - - - -
22/09:00pm 8.7 SW 5 5 1019.2 - 0.0 - - 10 - - - -
22/08:30pm 10.6 NW 4 4 1019.3 - 0.0 - - 10 - - - -
22/08:00pm 12.1 N 3 4 1019.3 - 0.0 - - 10 - - - -
22/07:30pm 12.0 SW 7 8 1019.2 - 0.0 - - 10 - - - -
22/07:00pm 11.8 SW 6 7 1019.0 - 0.0 - - 10 - - - -
22/06:30pm 13.2 WSW 5 7 1018.8 - 0.0 - - 10 - - - -
22/06:00pm 14.9 SSW 8 10 1018.5 - 0.0 - Mostly clear 10 - - - -
22/05:30pm 16.3 SSW 9 12 1018.1 - 0.0 - Partly cloudy 10 - - - -
22/05:00pm 16.6 SSW 14 18 1018.1 - 0.0 - - 10 - - - -
22/04:30pm 17.0 SSW 13 17 1017.9 - 0.0 - - 10 - - - -
22/04:00pm 18.3 S 12 17 1017.7 - 0.0 - - 10 - - - -
22/03:30pm 19.0 S 12 16 1017.6 - 0.0 - - 10 - - - -
22/03:00pm 20.2 S 11 14 1017.7 - 0.0 - - 10 - - - -
22/02:30pm 19.4 S 12 17 1017.5 - 0.0 - Partly cloudy 10 - - - -
22/02:00pm 18.8 SSW 11 15 1017.4 - 0.0 - Partly cloudy 10 - - - -
22/01:30pm 19.9 S 12 18 1017.3 - 0.0 - - 10 - - - -
22/01:00pm 19.9 S 14 19 1017.6 - 0.0 - - 10 - - - -
22/12:30pm 19.1 S 13 18 1017.8 - 0.0 - Partly cloudy 10 - - - -
22/12:00pm 19.1 SSW 12 17 1018.0 - 0.0 - - 10 - - - -
22/11:30am 19.0 S 12 16 1018.2 - 0.0 - Partly cloudy 10 - - - -
22/11:00am 19.1 S 13 19 1018.1 - 0.0 - Partly cloudy 10 - - - -
22/10:30am 18.3 S 12 17 1017.9 - 0.0 - Partly cloudy 10 - - - -
22/10:00am 18.0 SSW 13 17 1018.0 - 0.0 - Partly cloudy 10 - - - -
22/09:30am 17.6 SSW 12 16 1018.0 - 0.0 - Partly cloudy 10 - - - -
22/09:00am 16.9 SSW 10 15 1017.8 - 0.2 - Mostly clear 10 - - - -
22/08:30am 15.0 WSW 6 8 1017.6 - 0.2 - - 10 - - - -
22/08:00am 13.6 WSW 6 8 1017.2 - 0.2 - Partly cloudy 10 - - - -
22/07:30am 10.6 WSW 8 8 1016.7 - 0.2 - - 10 - - - -
22/07:00am 9.4 WSW 7 8 1016.2 - 0.2 - - 10 - - - -
22/06:30am 9.8 WSW 7 8 1015.8 - 0.2 - - 10 - - - -
22/06:00am 10.3 WSW 6 7 1015.5 - 0.2 - - 10 - - - -
22/05:30am 11.3 SW 7 8 1015.2 - 0.2 - - 10 - - - -
22/05:00am 12.3 SSW 9 10 1014.7 - 0.2 - - 10 - - - -
22/04:30am 12.7 SW 6 7 1014.7 - 0.2 - Partly cloudy 10 - - - -
22/04:00am 13.6 SW 4 6 1014.3 - 0.2 - Partly cloudy 10 - - - -
22/03:30am 14.0 SSW 3 4 1013.8 - 0.2 - Partly cloudy 10 - - - -
22/03:00am 14.8 SSW 6 9 1013.6 - 0.2 - Partly cloudy 10 - - - -
22/02:30am 14.6 SW 6 7 1013.7 - 0.2 - Partly cloudy 10 - - - -
22/02:00am 14.6 SW 7 9 1013.3 - 0.2 - Partly cloudy 10 - - - -
22/01:30am 14.9 SSW 6 9 1013.1 - 0.2 - Partly cloudy 10 - - - -
22/01:00am 15.6 SSW 11 14 1012.7 - 0.2 - Partly cloudy 10 - - - -
22/12:30am 15.9 SSW 10 13 1012.9 - 0.2 - Partly cloudy 10 - - - -
22/12:00am 16.4 SSW 9 12 1012.6 - 0.2 - Partly cloudy 10 - - - -
 
Date/Time
CST
Temp

°C
Wind Pressure Rain
since 9am
mm
Weather Cloud Vis
km
Sea
Height
m
Swell
Dir
 
Speed
knots
Gust
knots
hPa Trend Height
m
Period
s
Dir
21/11:30pm 16.7 SSW 10 14 1012.7 - 0.2 - Partly cloudy 10 - - - -
21/11:24pm 16.8 SW 11 14 1013.2 - 0.2 - Partly cloudy 10 - - - -
21/11:09pm 17.0 SSW 7 11 1013.2 - 0.2 - Partly cloudy 10 - - - -
21/11:00pm 17.1 SSW 11 16 1012.2 - 0.2 - Partly cloudy 9 - - - -
21/10:34pm 17.4 SW 6 9 1012.2 - 0.2 - Partly cloudy 10 - - - -
21/10:30pm 17.4 WSW 6 9 1012.9 - 0.2 - Partly cloudy 10 - - - -
21/10:18pm 17.3 SW 7 9 1012.9 - 0.2 - Partly cloudy 10 - - - -
21/10:00pm 17.1 SSW 5 7 1012.2 - 0.2 - Partly cloudy 9 - - - -
21/09:30pm 17.5 ESE 5 7 1011.4 - 0.2 - Partly cloudy 10 - - - -
21/09:00pm 18.2 SW 7 11 1012.4 - 0.0 - Cloudy 8 - - - -
21/08:33pm 18.2 SW 15 22 1011.8 - 0.0 - Partly cloudy 9 - - - -
21/08:30pm 18.2 NE 6 9 1010.8 - 0.0 - Partly cloudy 9 - - - -
21/08:00pm 18.9 E 5 8 1010.7 - 0.0 - Partly cloudy 10 - - - -
21/07:30pm 20.0 SSW 7 10 1011.0 - 0.0 - Partly cloudy 10 - - - -
21/07:00pm 20.2 SW 8 11 1010.9 - 0.0 - - 10 - - - -
21/06:30pm 20.9 W 7 10 1010.6 - 0.0 - Partly cloudy 10 - - - -
21/06:00pm 21.5 WSW 9 13 1009.3 - 0.0 - Mostly cloudy 10 - - - -
21/05:30pm 22.1 WNW 11 16 1009.2 - 0.0 - Partly cloudy 10 - - - -
21/05:00pm 22.7 W 9 13 1009.6 - 0.0 - Partly cloudy 10 - - - -
21/04:30pm 23.2 NW 11 15 1009.2 - 0.0 - - 10 - - - -
21/04:00pm 23.8 WNW 13 19 1009.1 - 0.0 - Partly cloudy 10 - - - -
21/03:30pm 23.9 WNW 13 19 1009.4 - 0.0 - - 10 - - - -
21/03:17pm 24.2 WNW 17 27 1009.3 - 0.0 - Partly cloudy 10 - - - -
21/03:00pm 24.9 NW 16 22 1009.2 - 0.0 - - 10 - - - -
21/02:30pm 24.1 W 15 21 1009.4 - 0.0 - Partly cloudy 10 - - - -
21/02:05pm 24.8 WNW 21 31 1009.4 - 0.0 - - 10 - - - -
21/02:00pm 25.3 WNW 20 27 1009.4 - 0.0 - - 10 - - - -
21/01:51pm 26.2 W 22 26 1009.5 - 0.0 - - 10 - - - -
21/01:36pm 27.7 NW 19 29 1009.4 - 0.0 - - 10 - - - -
21/01:30pm 27.6 WNW 20 29 1009.4 - 0.0 - - 10 - - - -
21/01:12pm 27.5 NW 16 26 1009.4 - 0.0 - - 10 - - - -
21/01:00pm 26.5 NW 15 23 1009.2 - 0.0 - Partly cloudy 10 - - - -

Other Formats:

Comma delimited format used in spreadsheet applications
http://www.bom.gov.au/fwo/IDS60701/IDS60701.95807.axf

JavaScript Object Notation format (JSON) in row-major order
http://www.bom.gov.au/fwo/IDS60701/IDS60701.95807.json